createdAt,value
2017-08-28T00:01:37.434Z,65.10
2017-08-28T00:04:04.906Z,65.20
2017-08-28T00:06:32.387Z,65.00
2017-08-28T00:08:59.913Z,65.20
2017-08-28T00:11:27.369Z,65.40
2017-08-28T00:13:54.831Z,65.50
2017-08-28T00:16:22.345Z,65.40
2017-08-28T00:18:49.945Z,65.40
2017-08-28T00:21:17.411Z,65.50
2017-08-28T00:23:44.878Z,66.00
2017-08-28T00:26:12.349Z,66.20
2017-08-28T00:28:39.801Z,66.30
2017-08-28T00:31:07.379Z,66.30
2017-08-28T00:33:34.940Z,65.90
2017-08-28T00:36:02.451Z,65.70
2017-08-28T00:38:29.929Z,65.80
2017-08-28T00:40:57.413Z,65.70
2017-08-28T00:43:24.968Z,65.90
2017-08-28T00:45:52.443Z,66.10
2017-08-28T00:48:19.973Z,66.10
2017-08-28T00:50:47.446Z,66.30
2017-08-28T00:53:15.009Z,66.40
2017-08-28T00:55:42.553Z,67.50
2017-08-28T00:58:10.119Z,65.90
2017-08-28T01:00:37.674Z,66.30
2017-08-28T01:03:05.147Z,66.10
2017-08-28T01:05:32.704Z,66.20
2017-08-28T01:08:00.198Z,65.90
2017-08-28T01:10:27.715Z,65.80
2017-08-28T01:12:55.256Z,65.70
2017-08-28T01:15:22.791Z,66.40
2017-08-28T01:17:50.258Z,65.90
2017-08-28T01:20:17.704Z,65.90
2017-08-28T01:22:45.174Z,66.10
2017-08-28T01:25:12.641Z,66.20
2017-08-28T01:27:40.207Z,66.20
2017-08-28T01:30:07.666Z,66.20
2017-08-28T01:32:35.127Z,66.40
2017-08-28T01:35:02.687Z,66.40
2017-08-28T01:37:30.243Z,66.00
2017-08-28T01:39:57.716Z,66.50
2017-08-28T01:42:25.178Z,66.60
2017-08-28T01:44:52.656Z,66.60
2017-08-28T01:47:20.123Z,66.80
2017-08-28T01:49:47.598Z,66.70
2017-08-28T01:52:15.069Z,66.80
2017-08-28T01:54:42.639Z,66.80
2017-08-28T01:57:10.120Z,66.60
2017-08-28T01:59:37.601Z,66.70
2017-08-28T02:02:05.160Z,67.00
2017-08-28T02:04:32.639Z,67.10
2017-08-28T02:07:00.103Z,67.30
2017-08-28T02:09:27.583Z,67.50
2017-08-28T02:11:55.050Z,67.50
2017-08-28T02:14:22.517Z,67.70
2017-08-28T02:16:50.057Z,67.70
2017-08-28T02:19:17.600Z,67.70
2017-08-28T02:21:45.072Z,68.00
2017-08-28T02:24:12.640Z,67.70
2017-08-28T02:26:40.173Z,67.80
2017-08-28T02:29:07.738Z,67.90
2017-08-28T02:31:35.210Z,68.10
2017-08-28T02:34:02.765Z,68.30
2017-08-28T02:36:30.230Z,68.40
2017-08-28T02:38:57.709Z,68.40
2017-08-28T02:41:25.186Z,68.40
2017-08-28T02:43:52.687Z,68.50
2017-08-28T02:46:20.296Z,68.40
2017-08-28T02:48:47.781Z,68.50
2017-08-28T02:51:15.251Z,68.50
2017-08-28T02:53:42.770Z,68.60
2017-08-28T02:56:10.277Z,68.90
2017-08-28T02:58:37.839Z,69.00
2017-08-28T03:01:05.334Z,69.10
2017-08-28T03:03:32.825Z,69.20
2017-08-28T03:06:00.316Z,69.20
2017-08-28T03:08:27.800Z,69.20
2017-08-28T03:10:55.312Z,68.60
2017-08-28T03:13:22.770Z,69.20
2017-08-28T03:15:50.327Z,69.30
2017-08-28T03:18:17.894Z,69.40
2017-08-28T03:20:45.450Z,69.50
2017-08-28T03:23:13.000Z,69.60
2017-08-28T03:25:40.562Z,69.50
2017-08-28T03:28:08.039Z,69.70
2017-08-28T03:30:35.502Z,69.90
2017-08-28T03:33:02.994Z,70.20
2017-08-28T03:35:30.480Z,70.80
2017-08-28T03:37:57.941Z,71.30
2017-08-28T03:40:26.261Z,71.50
2017-08-28T03:42:53.743Z,72.00
2017-08-28T03:45:21.208Z,71.90
2017-08-28T03:47:48.687Z,71.90
2017-08-28T03:50:16.162Z,72.10
2017-08-28T03:52:43.636Z,72.10
2017-08-28T03:55:11.116Z,71.80
2017-08-28T03:57:38.680Z,71.80
2017-08-28T04:00:06.138Z,72.00
2017-08-28T04:02:33.602Z,72.20
2017-08-28T04:05:01.062Z,72.10
2017-08-28T04:07:28.546Z,72.00
2017-08-28T04:09:56.010Z,72.10
2017-08-28T04:12:23.623Z,71.80
2017-08-28T04:14:51.105Z,71.70
2017-08-28T04:17:18.579Z,71.70
2017-08-28T04:19:46.096Z,71.80
2017-08-28T04:22:13.561Z,72.00
2017-08-28T04:24:41.021Z,71.70
2017-08-28T04:27:08.513Z,72.10
2017-08-28T04:29:36.095Z,72.00
2017-08-28T04:32:03.570Z,72.30
2017-08-28T04:34:31.091Z,72.50
2017-08-28T04:36:58.655Z,72.50
2017-08-28T04:39:26.147Z,72.30
2017-08-28T04:41:53.610Z,72.30
2017-08-28T04:44:21.119Z,72.90
2017-08-28T04:46:48.664Z,72.30
2017-08-28T04:49:16.142Z,72.20
2017-08-28T04:51:43.691Z,72.10
2017-08-28T04:54:11.259Z,72.10
2017-08-28T04:56:38.918Z,72.20
2017-08-28T04:59:06.487Z,72.20
2017-08-28T05:01:33.963Z,72.20
2017-08-28T05:04:01.487Z,72.30
2017-08-28T05:06:29.028Z,72.20
2017-08-28T05:08:56.513Z,71.90
2017-08-28T05:11:24.059Z,72.30
2017-08-28T05:13:51.540Z,72.40
2017-08-28T05:16:19.010Z,72.50
2017-08-28T05:18:46.482Z,72.60
2017-08-28T05:21:13.948Z,72.50
2017-08-28T05:23:41.408Z,72.60
2017-08-28T05:26:08.882Z,72.40
2017-08-28T05:28:36.458Z,72.30
2017-08-28T05:31:03.961Z,72.10
2017-08-28T05:33:31.426Z,72.40
2017-08-28T05:35:58.925Z,72.70
2017-08-28T05:38:26.486Z,72.80
2017-08-28T05:40:54.100Z,72.80
2017-08-28T05:43:21.601Z,73.20
2017-08-28T05:45:49.065Z,73.30
2017-08-28T05:48:16.619Z,73.40
2017-08-28T05:50:44.181Z,73.30
2017-08-28T05:53:11.688Z,73.00
2017-08-28T05:55:39.161Z,72.80
2017-08-28T05:58:06.653Z,72.60
2017-08-28T06:00:34.159Z,72.40
2017-08-28T06:03:01.640Z,72.10
2017-08-28T06:05:29.121Z,71.90
2017-08-28T06:07:56.685Z,72.10
2017-08-28T06:10:24.234Z,71.90
2017-08-28T06:12:51.712Z,71.50
2017-08-28T06:15:19.168Z,71.30
2017-08-28T06:17:46.643Z,70.90
2017-08-28T06:20:14.103Z,70.80
2017-08-28T06:22:41.586Z,70.50
2017-08-28T06:25:09.051Z,69.90
2017-08-28T06:27:36.540Z,69.60
2017-08-28T06:30:04.101Z,69.40
2017-08-28T06:32:31.580Z,69.00
2017-08-28T06:34:59.124Z,69.10
2017-08-28T06:37:26.613Z,69.00
2017-08-28T06:39:54.075Z,68.90
2017-08-28T06:42:21.552Z,67.90
2017-08-28T06:44:49.020Z,68.10
2017-08-28T06:47:16.486Z,68.10
2017-08-28T06:49:44.006Z,67.60
2017-08-28T06:52:11.473Z,67.50
2017-08-28T06:54:38.974Z,66.90
2017-08-28T06:57:06.446Z,66.90
2017-08-28T06:59:34.052Z,66.70
2017-08-28T07:02:01.566Z,66.40
2017-08-28T07:04:29.022Z,65.60
2017-08-28T07:06:56.564Z,65.20
2017-08-28T07:09:24.030Z,65.40
2017-08-28T07:11:51.556Z,63.10
2017-08-28T07:14:19.031Z,64.10
2017-08-28T07:16:46.603Z,65.10
2017-08-28T07:19:14.074Z,64.90
2017-08-28T07:21:41.588Z,65.60
2017-08-28T07:24:09.059Z,65.80
2017-08-28T07:26:36.628Z,65.80
2017-08-28T07:29:04.104Z,64.90
2017-08-28T07:31:31.689Z,65.30
2017-08-28T07:34:03.072Z,64.70
2017-08-28T07:36:30.669Z,64.60
2017-08-28T07:38:58.203Z,63.10
2017-08-28T07:41:25.668Z,63.30
2017-08-28T07:43:53.210Z,63.10
2017-08-28T07:46:20.767Z,64.20
2017-08-28T07:48:48.324Z,63.70
2017-08-28T07:51:15.782Z,63.30
2017-08-28T07:53:43.261Z,62.10
2017-08-28T07:56:10.734Z,60.90
2017-08-28T07:58:38.310Z,60.90
2017-08-28T08:01:05.814Z,61.10
2017-08-28T08:03:33.429Z,61.20
2017-08-28T08:06:00.890Z,60.80
2017-08-28T08:08:28.363Z,61.90
2017-08-28T08:10:55.863Z,62.00
2017-08-28T08:13:23.360Z,61.90
2017-08-28T08:15:50.847Z,62.20
2017-08-28T08:18:18.328Z,61.60
2017-08-28T08:20:45.826Z,60.10
2017-08-28T08:23:13.291Z,61.00
2017-08-28T08:25:40.788Z,60.40
2017-08-28T08:28:08.352Z,59.00
2017-08-28T08:30:35.920Z,59.60
2017-08-28T08:33:03.386Z,60.10
2017-08-28T08:35:31.833Z,59.80
2017-08-28T08:37:59.503Z,58.80
2017-08-28T08:40:26.974Z,58.50
2017-08-28T08:42:54.460Z,58.50
2017-08-28T08:45:21.931Z,58.80
2017-08-28T08:47:49.436Z,57.20
2017-08-28T08:50:17.001Z,57.40
2017-08-28T08:52:44.466Z,57.60
2017-08-28T08:55:12.004Z,56.50
2017-08-28T08:57:39.476Z,55.60
2017-08-28T09:00:06.939Z,56.00
2017-08-28T09:02:34.419Z,55.80
2017-08-28T09:05:01.978Z,55.90
2017-08-28T09:07:29.499Z,54.90
2017-08-28T09:09:57.061Z,54.30
2017-08-28T09:12:24.548Z,53.40
2017-08-28T09:14:52.090Z,53.30
2017-08-28T09:17:19.561Z,53.80
2017-08-28T09:19:47.136Z,53.30
2017-08-28T09:22:14.593Z,52.30
2017-08-28T09:24:42.064Z,53.10
2017-08-28T09:27:09.545Z,52.50
2017-08-28T09:29:37.010Z,52.30
2017-08-28T09:32:04.688Z,52.80
2017-08-28T09:34:32.170Z,53.40
2017-08-28T09:36:59.672Z,53.30
2017-08-28T09:39:27.255Z,53.30
2017-08-28T09:41:54.745Z,52.50
2017-08-28T09:44:22.212Z,53.20
2017-08-28T09:46:49.734Z,53.80
2017-08-28T09:49:17.281Z,53.80
2017-08-28T09:51:44.737Z,53.50
2017-08-28T09:54:12.223Z,53.20
2017-08-28T09:56:39.734Z,50.80
2017-08-28T09:59:07.214Z,51.20
2017-08-28T10:01:34.762Z,51.20
2017-08-28T10:04:02.294Z,51.60
2017-08-28T10:06:29.773Z,51.30
2017-08-28T10:08:57.328Z,51.70
2017-08-28T10:11:24.800Z,50.60
2017-08-28T10:13:52.359Z,51.50
2017-08-28T10:16:19.830Z,52.30
2017-08-28T10:18:47.304Z,53.60
2017-08-28T10:21:14.752Z,52.90
2017-08-28T10:23:42.217Z,52.20
2017-08-28T10:26:09.737Z,52.00
2017-08-28T10:28:37.229Z,52.30
2017-08-28T10:31:04.885Z,52.20
2017-08-28T10:33:32.346Z,51.40
2017-08-28T10:35:59.815Z,52.60
2017-08-28T10:38:27.345Z,51.40
2017-08-28T10:40:54.800Z,51.80
2017-08-28T10:43:22.338Z,51.90
2017-08-28T10:45:49.813Z,51.20
2017-08-28T10:48:17.288Z,49.70
2017-08-28T10:50:44.796Z,48.90
2017-08-28T10:53:18.979Z,49.10
2017-08-28T10:55:46.451Z,50.00
2017-08-28T10:58:13.912Z,50.30
2017-08-28T11:00:41.419Z,49.30
2017-08-28T11:03:08.945Z,48.70
2017-08-28T11:05:36.408Z,48.40
2017-08-28T11:08:03.964Z,47.50
2017-08-28T11:10:31.439Z,46.60
2017-08-28T11:12:58.972Z,45.70
2017-08-28T11:15:26.560Z,44.70
2017-08-28T11:17:54.125Z,45.30
2017-08-28T11:20:21.650Z,46.10
2017-08-28T11:22:49.254Z,47.80
2017-08-28T11:25:16.782Z,47.30
2017-08-28T11:27:44.333Z,44.50
2017-08-28T11:30:12.189Z,45.40
2017-08-28T11:32:39.661Z,45.30
2017-08-28T11:35:07.116Z,45.10
2017-08-28T11:37:34.690Z,44.00
2017-08-28T11:40:02.147Z,42.80
2017-08-28T11:42:30.321Z,41.70
2017-08-28T11:44:57.879Z,41.70
2017-08-28T11:47:25.400Z,42.30
2017-08-28T11:49:52.900Z,43.20
2017-08-28T11:52:20.444Z,42.00
2017-08-28T11:54:47.914Z,42.00
2017-08-28T11:57:15.458Z,42.90
2017-08-28T11:59:43.026Z,42.30
2017-08-28T12:02:10.579Z,40.80
2017-08-28T12:04:38.142Z,39.50
2017-08-28T12:07:05.740Z,41.80
2017-08-28T12:09:33.221Z,40.40
2017-08-28T12:12:00.770Z,40.60
2017-08-28T12:14:28.326Z,41.20
2017-08-28T12:16:55.805Z,41.00
2017-08-28T12:19:23.343Z,40.40
2017-08-28T12:21:50.843Z,38.40
2017-08-28T12:24:18.550Z,38.80
2017-08-28T12:26:46.074Z,37.80
2017-08-28T12:29:13.626Z,39.20
2017-08-28T12:31:41.108Z,40.80
2017-08-28T12:34:08.632Z,39.30
2017-08-28T12:36:36.200Z,39.80
2017-08-28T12:39:03.664Z,38.70
2017-08-28T12:41:31.147Z,38.60
2017-08-28T12:43:58.769Z,39.40
2017-08-28T12:46:26.247Z,39.50
2017-08-28T12:48:53.709Z,42.30
2017-08-28T12:51:21.181Z,40.20
2017-08-28T12:53:48.699Z,40.50
2017-08-28T12:56:16.173Z,41.70
2017-08-28T12:58:43.707Z,42.30
2017-08-28T13:01:11.199Z,40.70
2017-08-28T13:03:38.738Z,39.20
2017-08-28T13:06:06.389Z,39.50
2017-08-28T13:08:33.945Z,39.20
2017-08-28T13:11:01.504Z,39.80
2017-08-28T13:13:29.054Z,39.30
2017-08-28T13:15:56.627Z,40.00
2017-08-28T13:18:24.274Z,39.10
2017-08-28T13:20:51.752Z,39.50
2017-08-28T13:23:19.306Z,39.60
2017-08-28T13:25:46.864Z,39.70
2017-08-28T13:28:14.327Z,39.50
2017-08-28T13:30:41.810Z,39.80
2017-08-28T13:33:09.326Z,40.80
2017-08-28T13:35:36.875Z,40.90
2017-08-28T13:38:04.445Z,40.20
2017-08-28T13:40:32.003Z,40.10
2017-08-28T13:42:59.554Z,39.40
2017-08-28T13:45:27.101Z,39.40
2017-08-28T13:47:54.622Z,40.70
2017-08-28T13:50:22.110Z,39.70
2017-08-28T13:52:49.715Z,37.70
2017-08-28T13:55:17.202Z,39.00
2017-08-28T13:57:44.684Z,38.50
2017-08-28T14:00:12.175Z,38.70
2017-08-28T14:02:39.718Z,40.00
2017-08-28T14:05:07.201Z,38.80
2017-08-28T14:07:34.653Z,37.70
2017-08-28T14:10:02.208Z,38.00
2017-08-28T14:12:29.679Z,38.60
2017-08-28T14:14:57.142Z,38.00
2017-08-28T14:17:24.665Z,36.90
2017-08-28T14:19:52.248Z,38.50
2017-08-28T14:22:19.729Z,38.40
2017-08-28T14:24:47.188Z,36.40
2017-08-28T14:27:14.704Z,36.60
2017-08-28T14:29:42.182Z,37.30
2017-08-28T14:32:09.713Z,36.00
2017-08-28T14:34:37.271Z,36.10
2017-08-28T14:37:04.752Z,35.80
2017-08-28T14:39:32.276Z,36.60
2017-08-28T14:41:59.836Z,37.10
2017-08-28T14:44:27.410Z,35.40
2017-08-28T14:46:55.113Z,36.00
2017-08-28T14:49:22.605Z,37.90
2017-08-28T14:51:50.079Z,36.40
2017-08-28T14:54:17.556Z,36.00
2017-08-28T14:56:45.091Z,34.40
2017-08-28T14:59:12.563Z,35.00
2017-08-28T15:01:40.106Z,37.20
2017-08-28T15:04:07.671Z,34.60
2017-08-28T15:06:35.159Z,34.40
2017-08-28T15:09:02.681Z,36.00
2017-08-28T15:11:30.247Z,35.00
2017-08-28T15:13:57.849Z,36.00
2017-08-28T15:16:25.371Z,34.40
2017-08-28T15:18:52.915Z,33.50
2017-08-28T15:21:20.361Z,34.10
2017-08-28T15:23:47.831Z,33.60
2017-08-28T15:26:15.307Z,34.10
2017-08-28T15:28:42.844Z,34.30
2017-08-28T15:31:10.402Z,34.30
2017-08-28T15:33:37.876Z,33.70
2017-08-28T15:36:05.426Z,33.50
2017-08-28T15:38:33.001Z,34.00
2017-08-28T15:41:00.550Z,33.50
2017-08-28T15:43:28.098Z,32.30
2017-08-28T15:45:55.668Z,32.80
2017-08-28T15:48:23.220Z,33.20
2017-08-28T15:50:50.829Z,31.90
2017-08-28T15:53:18.319Z,32.80
2017-08-28T15:55:45.898Z,32.10
2017-08-28T15:58:13.377Z,32.40
2017-08-28T16:00:40.913Z,33.20
2017-08-28T16:03:08.391Z,32.10
2017-08-28T16:05:35.928Z,32.30
2017-08-28T16:08:03.517Z,31.70
2017-08-28T16:10:31.047Z,31.70
2017-08-28T16:12:58.606Z,30.80
2017-08-28T16:15:26.148Z,30.60
2017-08-28T16:17:53.634Z,31.20
2017-08-28T16:20:21.100Z,30.40
2017-08-28T16:22:48.635Z,30.70
2017-08-28T16:25:16.085Z,30.50
2017-08-28T16:27:43.644Z,31.20
2017-08-28T16:30:11.168Z,30.00
2017-08-28T16:32:38.658Z,29.60
2017-08-28T16:35:06.230Z,29.90
2017-08-28T16:37:33.784Z,30.60
2017-08-28T16:40:01.249Z,29.80
2017-08-28T16:42:28.711Z,29.40
2017-08-28T16:44:56.251Z,28.80
2017-08-28T16:47:23.765Z,29.30
2017-08-28T16:49:51.345Z,29.50
2017-08-28T16:52:18.823Z,28.50
2017-08-28T16:54:46.307Z,28.20
2017-08-28T16:57:13.834Z,28.50
2017-08-28T16:59:41.311Z,28.60
2017-08-28T17:02:08.786Z,28.60
2017-08-28T17:04:36.346Z,28.00
2017-08-28T17:07:03.835Z,27.50
2017-08-28T17:09:46.196Z,28.00
2017-08-28T17:12:13.668Z,28.30
2017-08-28T17:14:41.143Z,28.50
2017-08-28T17:17:08.627Z,29.80
2017-08-28T17:19:36.097Z,29.00
2017-08-28T17:22:03.605Z,30.30
2017-08-28T17:24:31.080Z,32.10
2017-08-28T17:26:58.535Z,32.90
2017-08-28T17:29:26.013Z,34.80
2017-08-28T17:31:53.473Z,36.50
2017-08-28T17:34:21.029Z,37.90
2017-08-28T17:36:48.546Z,38.80
2017-08-28T17:39:16.054Z,39.40
2017-08-28T17:41:43.506Z,40.00
2017-08-28T17:44:11.082Z,40.60
2017-08-28T17:46:38.631Z,40.90
2017-08-28T17:49:06.141Z,41.00
2017-08-28T17:51:33.624Z,41.30
2017-08-28T17:54:01.149Z,41.50
2017-08-28T17:56:28.650Z,41.70
2017-08-28T17:58:56.235Z,42.00
2017-08-28T18:01:23.694Z,42.10
2017-08-28T18:03:51.160Z,42.40
2017-08-28T18:06:18.826Z,43.00
2017-08-28T18:08:46.391Z,43.00
2017-08-28T18:11:13.858Z,43.20
2017-08-28T18:13:41.368Z,44.00
2017-08-28T18:16:08.862Z,44.60
2017-08-28T18:18:36.325Z,45.10
2017-08-28T18:21:03.793Z,45.30
2017-08-28T18:23:31.286Z,45.30
2017-08-28T18:25:58.863Z,45.20
2017-08-28T18:28:26.460Z,46.00
2017-08-28T18:30:53.915Z,46.90
2017-08-28T18:33:21.390Z,46.50
2017-08-28T18:35:48.864Z,46.50
2017-08-28T18:38:16.425Z,46.70
2017-08-28T18:40:44.050Z,47.20
2017-08-28T18:43:11.607Z,47.30
2017-08-28T18:45:39.082Z,47.50
2017-08-28T18:48:06.566Z,47.70
2017-08-28T18:50:34.059Z,47.90
2017-08-28T18:53:01.534Z,48.10
2017-08-28T18:55:29.037Z,48.70
2017-08-28T18:57:56.708Z,49.10
2017-08-28T19:00:24.308Z,49.20
2017-08-28T19:02:51.832Z,49.30
2017-08-28T19:05:19.382Z,49.20
2017-08-28T19:07:46.837Z,49.60
2017-08-28T19:10:14.308Z,49.70
2017-08-28T19:12:41.845Z,49.80
2017-08-28T19:15:09.335Z,49.70
2017-08-28T19:17:36.825Z,50.50
2017-08-28T19:20:04.313Z,50.40
2017-08-28T19:22:31.772Z,50.50
2017-08-28T19:24:59.259Z,50.40
2017-08-28T19:27:26.731Z,50.50
2017-08-28T19:29:54.242Z,50.80
2017-08-28T19:32:21.711Z,50.60
2017-08-28T19:34:49.270Z,50.60
2017-08-28T19:37:16.823Z,51.60
2017-08-28T19:39:44.576Z,51.40
2017-08-28T19:42:12.042Z,51.90
2017-08-28T19:44:39.593Z,51.80
2017-08-28T19:47:07.171Z,52.20
2017-08-28T19:49:34.814Z,52.80
2017-08-28T19:52:02.273Z,52.70
2017-08-28T19:54:32.566Z,53.00
2017-08-28T19:57:00.021Z,53.20
2017-08-28T19:59:27.520Z,53.40
2017-08-28T20:01:54.980Z,53.70
2017-08-28T20:04:23.507Z,54.20
2017-08-28T20:06:50.990Z,54.10
2017-08-28T20:09:18.493Z,54.30
2017-08-28T20:11:46.022Z,54.40
2017-08-28T20:14:13.491Z,55.20
2017-08-28T20:16:41.092Z,54.50
2017-08-28T20:19:08.566Z,54.70
2017-08-28T20:21:36.033Z,55.10
2017-08-28T20:24:03.572Z,55.10
2017-08-28T20:26:31.086Z,55.70
2017-08-28T20:28:58.555Z,55.60
2017-08-28T20:31:26.027Z,55.80
2017-08-28T20:33:53.558Z,56.00
2017-08-28T20:36:21.103Z,56.10
2017-08-28T20:38:48.570Z,56.10
2017-08-28T20:41:16.066Z,56.10
2017-08-28T20:43:43.626Z,56.50
2017-08-28T20:46:11.073Z,56.30
2017-08-28T20:48:40.569Z,57.20
2017-08-28T20:51:08.114Z,56.90
2017-08-28T20:53:35.573Z,57.30
2017-08-28T20:56:03.112Z,57.10
2017-08-28T20:58:30.581Z,57.20
2017-08-28T21:00:58.058Z,57.60
2017-08-28T21:03:25.535Z,57.70
2017-08-28T21:05:53.092Z,57.70
2017-08-28T21:08:20.592Z,57.90
2017-08-28T21:10:48.156Z,57.90
2017-08-28T21:13:15.743Z,57.90
2017-08-28T21:15:43.223Z,58.00
2017-08-28T21:18:10.707Z,58.00
2017-08-28T21:20:38.235Z,58.30
2017-08-28T21:23:05.699Z,58.00
2017-08-28T21:25:33.151Z,58.10
2017-08-28T21:28:00.629Z,58.40
2017-08-28T21:30:28.106Z,58.40
2017-08-28T21:32:55.588Z,58.50
2017-08-28T21:35:23.067Z,58.50
2017-08-28T21:37:50.522Z,58.80
2017-08-28T21:40:18.042Z,59.00
2017-08-28T21:42:45.508Z,59.00
2017-08-28T21:45:13.002Z,58.90
2017-08-28T21:47:40.470Z,59.80
2017-08-28T21:50:07.949Z,59.60
2017-08-28T21:52:35.540Z,59.70
2017-08-28T21:55:03.200Z,59.70
2017-08-28T21:57:30.804Z,59.90
2017-08-28T21:59:58.297Z,59.80
2017-08-28T22:02:25.876Z,59.90
2017-08-28T22:04:53.346Z,59.90
2017-08-28T22:07:20.820Z,61.50
2017-08-28T22:09:48.377Z,60.60
2017-08-28T22:12:15.903Z,60.30
2017-08-28T22:14:43.449Z,60.90
2017-08-28T22:17:10.898Z,60.90
2017-08-28T22:19:38.458Z,61.00
2017-08-28T22:22:06.027Z,61.20
2017-08-28T22:24:33.498Z,61.40
2017-08-28T22:27:01.025Z,61.20
2017-08-28T22:29:28.619Z,61.50
2017-08-28T22:31:56.096Z,61.50
2017-08-28T22:34:23.593Z,61.80
2017-08-28T22:36:51.076Z,61.80
2017-08-28T22:39:18.555Z,62.10
2017-08-28T22:41:46.082Z,61.80
2017-08-28T22:44:13.653Z,61.80
2017-08-28T22:46:41.152Z,61.70
2017-08-28T22:49:08.712Z,61.70
2017-08-28T22:51:36.203Z,62.00
2017-08-28T22:54:03.670Z,62.20
2017-08-28T22:56:31.246Z,62.20
2017-08-28T22:58:58.710Z,62.30
2017-08-28T23:01:27.091Z,62.40
2017-08-28T23:03:54.624Z,62.30
2017-08-28T23:06:22.196Z,62.50
2017-08-28T23:08:49.752Z,62.60
2017-08-28T23:11:17.315Z,63.30
2017-08-28T23:13:44.880Z,63.40
2017-08-28T23:16:12.328Z,63.20
2017-08-28T23:18:39.823Z,63.10
2017-08-28T23:21:07.329Z,63.70
2017-08-28T23:23:34.900Z,63.70
2017-08-28T23:26:02.353Z,63.60
2017-08-28T23:28:29.812Z,63.80
2017-08-28T23:30:57.268Z,64.00
2017-08-28T23:33:24.753Z,63.90
2017-08-28T23:35:52.222Z,64.90
2017-08-28T23:38:19.686Z,63.90
2017-08-28T23:40:47.141Z,64.00
2017-08-28T23:43:14.602Z,63.80
2017-08-28T23:45:42.123Z,63.70
2017-08-28T23:48:09.647Z,63.60
2017-08-28T23:50:37.110Z,63.70
2017-08-28T23:53:04.684Z,63.70
2017-08-28T23:55:32.149Z,64.20
2017-08-28T23:57:59.609Z,64.90
